Main page
METAR-TAF:

METAR-TAF

Airports :

Mashhad International Airport

Mashhad, Iran

latitude: 36-16N, longitude: 059-38E, elevation: 989 m

Current weather observation

The report was made 20 minutes ago, at 16:00 UTC
Wind 10 kt from the North/Northwest
Temperature 29°C
Humidity 15%
Pressure 1016 hPa
Visibility 10 km or more
no clouds below 1500 m and no cumulonimbus

METAR: OIMM 281600Z 34010KT CAVOK 29/00 Q1015 A2999

Time: 20:50 (16:20 UTC)

Forecast

The report was made 5 hours and 10 minutes ago, at 11:10 UTC
Forecast valid from 28 at 12 UTC to 29 at 18 UTC
Wind 16 kt from the East/Northeast
Visibility: 7000 m
Temporary
from 28 at 12 UTC to 28 at 16 UTC
Wind 26 kt from the East/Northeast
Visibility: 4000 m
sand
Becoming
from 28 at 17 UTC to 28 at 19 UTC
Wind 10 kt from the West
Temporary
from 29 at 09 UTC to 29 at 15 UTC
Wind 20 kt from the East/Northeast

TAF: OIMM 281110Z 2812/2918 06016KT 7000 NSC TEMPO 2812/2816 06026KT 4000 SA BECMG 2817/2819 28010KT TEMPO 2909/2915 06020KT

Weather observations and forecasts of more than 4000 airports (METAR and TAF reports).

The available stations are represented by yellow and red dots on the map.

Hover mouse over dot to see the name of the station.

Then click to see weather observations and forecasts.

To change the map : click on the green buttons with a black cross to zoom in, on the green button with a dash to zoom out, or on the green arrows for adjacent maps.


METAR-TAF: